createdAt,value
2023-05-26T00:00:49.880Z,10.73
2023-05-26T00:03:18.276Z,10.42
2023-05-26T00:05:46.067Z,10.32
2023-05-26T00:08:12.861Z,10.41
2023-05-26T00:10:39.438Z,10.32
2023-05-26T00:13:06.007Z,10.10
2023-05-26T00:15:32.553Z,10.46
2023-05-26T00:17:59.375Z,10.23
2023-05-26T00:20:26.770Z,10.26
2023-05-26T00:22:53.356Z,10.28
2023-05-26T00:25:19.988Z,10.37
2023-05-26T00:27:46.485Z,10.23
2023-05-26T00:30:13.253Z,10.29
2023-05-26T00:32:39.861Z,10.20
2023-05-26T00:35:06.668Z,10.23
2023-05-26T00:37:33.724Z,10.29
2023-05-26T00:40:00.362Z,10.26
2023-05-26T00:42:26.943Z,10.23
2023-05-26T00:44:53.450Z,10.26
2023-05-26T00:47:20.420Z,10.10
2023-05-26T00:49:47.012Z,10.00
2023-05-26T00:52:13.529Z,9.95
2023-05-26T00:54:41.005Z,10.00
2023-05-26T00:57:08.085Z,10.05
2023-05-26T00:59:34.900Z,9.92
2023-05-26T01:02:01.473Z,9.99
2023-05-26T01:04:28.314Z,10.04
2023-05-26T01:06:56.426Z,9.84
2023-05-26T01:09:23.019Z,9.54
2023-05-26T01:11:57.989Z,9.59
2023-05-26T01:14:35.251Z,9.76
2023-05-26T01:17:08.602Z,9.50
2023-05-26T01:20:00.275Z,9.52
2023-05-26T01:22:49.877Z,9.18
2023-05-26T01:25:18.803Z,9.19
2023-05-26T01:27:47.997Z,9.11
2023-05-26T01:30:14.877Z,9.39
2023-05-26T01:32:48.818Z,9.47
2023-05-26T01:35:15.948Z,9.57
2023-05-26T01:37:42.995Z,9.46
2023-05-26T01:40:10.416Z,9.60
2023-05-26T01:42:39.835Z,9.71
2023-05-26T01:45:07.936Z,9.88
2023-05-26T01:47:34.595Z,9.92
2023-05-26T01:50:02.958Z,10.08
2023-05-26T01:52:29.514Z,10.40
2023-05-26T01:55:01.044Z,10.42
2023-05-26T01:57:27.597Z,10.43
2023-05-26T01:59:54.162Z,10.53
2023-05-26T02:02:20.797Z,10.75
2023-05-26T02:04:47.294Z,10.73
2023-05-26T02:07:13.851Z,10.83
2023-05-26T02:09:40.829Z,11.02
2023-05-26T02:12:07.698Z,11.15
2023-05-26T02:14:34.317Z,11.28
2023-05-26T02:17:00.907Z,11.41
2023-05-26T02:19:27.602Z,11.61
2023-05-26T02:21:54.084Z,11.73
2023-05-26T02:24:21.783Z,11.83
2023-05-26T02:26:48.291Z,11.85
2023-05-26T02:29:14.813Z,11.90
2023-05-26T02:31:43.012Z,11.92
2023-05-26T02:34:11.339Z,11.92
2023-05-26T02:36:37.927Z,11.91
2023-05-26T02:39:05.048Z,11.90
2023-05-26T02:41:31.598Z,11.95
2023-05-26T02:43:58.154Z,11.95
2023-05-26T02:46:25.526Z,11.87
2023-05-26T02:48:52.183Z,11.84
2023-05-26T02:51:18.700Z,11.86
2023-05-26T02:53:45.404Z,11.87
2023-05-26T02:56:11.949Z,11.72
2023-05-26T02:58:38.485Z,11.79
2023-05-26T03:01:05.224Z,11.85
2023-05-26T03:03:31.909Z,11.81
2023-05-26T03:05:59.799Z,11.80
2023-05-26T03:08:26.458Z,11.77
2023-05-26T03:11:10.044Z,11.80
2023-05-26T03:13:37.966Z,11.84
2023-05-26T03:16:04.707Z,11.81
2023-05-26T03:18:31.427Z,11.79
2023-05-26T03:20:59.676Z,11.79
2023-05-26T03:23:26.210Z,11.77
2023-05-26T03:25:52.739Z,11.69
2023-05-26T03:28:19.774Z,11.72
2023-05-26T03:30:46.282Z,11.62
2023-05-26T03:33:12.837Z,11.67
2023-05-26T03:35:39.417Z,11.64
2023-05-26T03:38:05.949Z,11.67
2023-05-26T03:40:32.522Z,11.58
2023-05-26T03:42:59.198Z,11.52
2023-05-26T03:45:25.925Z,11.50
2023-05-26T03:47:52.424Z,11.45
2023-05-26T03:50:19.050Z,11.33
2023-05-26T03:52:45.585Z,11.42
2023-05-26T03:55:12.255Z,11.34
2023-05-26T03:57:39.345Z,11.26
2023-05-26T04:00:08.975Z,11.26
2023-05-26T04:02:35.830Z,11.25
2023-05-26T04:05:03.100Z,11.28
2023-05-26T04:07:29.966Z,11.26
2023-05-26T04:09:56.461Z,11.17
2023-05-26T04:12:23.890Z,11.12
2023-05-26T04:14:50.449Z,11.13
2023-05-26T04:17:16.949Z,11.07
2023-05-26T04:19:43.462Z,11.11
2023-05-26T04:22:10.004Z,11.05
2023-05-26T04:24:36.667Z,10.94
2023-05-26T04:27:03.253Z,10.97
2023-05-26T04:29:30.725Z,11.00
2023-05-26T04:31:57.335Z,11.01
2023-05-26T04:34:25.201Z,11.01
2023-05-26T04:36:51.848Z,10.97
2023-05-26T04:39:18.443Z,11.02
2023-05-26T04:41:45.890Z,10.98
2023-05-26T04:44:12.897Z,11.01
2023-05-26T04:46:39.992Z,11.03
2023-05-26T04:49:08.650Z,11.04
2023-05-26T04:51:35.229Z,11.09
2023-05-26T04:54:01.773Z,11.21
2023-05-26T04:56:28.587Z,11.25
2023-05-26T04:58:57.110Z,11.43
2023-05-26T05:01:23.681Z,11.48
2023-05-26T05:03:50.404Z,11.67
2023-05-26T05:06:16.990Z,11.72
2023-05-26T05:08:43.773Z,11.76
2023-05-26T05:11:10.327Z,11.80
2023-05-26T05:13:36.907Z,11.86
2023-05-26T05:16:04.616Z,12.00
2023-05-26T05:18:31.380Z,12.01
2023-05-26T05:20:58.391Z,12.17
2023-05-26T05:23:24.985Z,12.19
2023-05-26T05:25:51.713Z,12.26
2023-05-26T05:28:18.570Z,12.36
2023-05-26T05:30:46.437Z,12.39
2023-05-26T05:33:13.413Z,12.51
2023-05-26T05:35:40.030Z,12.53
2023-05-26T05:38:06.637Z,12.65
2023-05-26T05:40:33.300Z,12.64
2023-05-26T05:42:59.833Z,12.80
2023-05-26T05:45:26.359Z,12.92
2023-05-26T05:47:52.960Z,12.88
2023-05-26T05:50:19.549Z,12.91
2023-05-26T05:52:46.102Z,13.02
2023-05-26T05:55:13.157Z,13.25
2023-05-26T05:57:39.702Z,13.32
2023-05-26T06:00:06.837Z,13.32
2023-05-26T06:02:33.528Z,13.29
2023-05-26T06:05:03.359Z,13.36
2023-05-26T06:07:30.905Z,13.53
2023-05-26T06:09:58.304Z,13.46
2023-05-26T06:12:24.994Z,13.58
2023-05-26T06:14:51.475Z,13.73
2023-05-26T06:17:18.062Z,13.86
2023-05-26T06:19:44.663Z,13.90
2023-05-26T06:22:11.220Z,14.07
2023-05-26T06:24:37.762Z,14.18
2023-05-26T06:27:05.217Z,14.23
2023-05-26T06:29:31.722Z,14.30
2023-05-26T06:31:58.293Z,14.35
2023-05-26T06:34:24.806Z,14.26
2023-05-26T06:36:52.152Z,14.43
2023-05-26T06:39:19.096Z,14.43
2023-05-26T06:41:45.707Z,14.54
2023-05-26T06:44:12.402Z,14.56
2023-05-26T06:46:39.184Z,14.48
2023-05-26T06:49:05.767Z,14.66
2023-05-26T06:51:32.276Z,14.82
2023-05-26T06:53:58.904Z,14.87
2023-05-26T06:56:27.211Z,15.12
2023-05-26T06:58:54.127Z,15.17
2023-05-26T07:01:20.778Z,15.16
2023-05-26T07:03:47.448Z,15.37
2023-05-26T07:06:14.025Z,15.48
2023-05-26T07:08:40.688Z,15.46
2023-05-26T07:11:08.032Z,15.33
2023-05-26T07:13:34.572Z,15.47
2023-05-26T07:16:01.165Z,15.74
2023-05-26T07:18:27.801Z,15.77
2023-05-26T07:20:54.471Z,15.59
2023-05-26T07:23:21.214Z,15.73
2023-05-26T07:25:47.723Z,15.86
2023-05-26T07:28:14.260Z,16.04
2023-05-26T07:30:41.127Z,16.12
2023-05-26T07:33:07.759Z,16.08
2023-05-26T07:35:34.341Z,16.34
2023-05-26T07:38:00.956Z,16.27
2023-05-26T07:40:30.232Z,16.47
2023-05-26T07:42:56.740Z,16.46
2023-05-26T07:45:23.439Z,16.37
2023-05-26T07:47:50.138Z,16.60
2023-05-26T07:50:16.723Z,16.59
2023-05-26T07:52:43.504Z,16.51
2023-05-26T07:55:09.994Z,16.70
2023-05-26T07:57:36.622Z,16.57
2023-05-26T08:00:04.688Z,17.05
2023-05-26T08:02:31.272Z,16.78
2023-05-26T08:04:57.976Z,16.93
2023-05-26T08:07:24.612Z,16.98
2023-05-26T08:09:53.284Z,17.18
2023-05-26T08:12:19.856Z,17.20
2023-05-26T08:14:46.459Z,17.43
2023-05-26T08:17:12.957Z,17.40
2023-05-26T08:19:39.526Z,17.67
2023-05-26T08:22:06.396Z,17.34
2023-05-26T08:24:32.895Z,17.40
2023-05-26T08:26:59.418Z,17.53
2023-05-26T08:29:26.136Z,17.52
2023-05-26T08:31:52.667Z,17.81
2023-05-26T08:34:19.263Z,17.94
2023-05-26T08:36:47.026Z,18.01
2023-05-26T08:39:13.561Z,17.91
2023-05-26T08:42:07.131Z,18.03
2023-05-26T08:44:37.054Z,18.13
2023-05-26T08:47:04.051Z,18.06
2023-05-26T08:49:40.326Z,18.07
2023-05-26T08:52:09.699Z,18.01
2023-05-26T08:54:36.481Z,18.46
2023-05-26T08:57:04.007Z,18.55
2023-05-26T08:59:30.759Z,18.64
2023-05-26T09:01:57.711Z,18.53
2023-05-26T09:04:26.495Z,18.68
2023-05-26T09:07:08.692Z,18.80
2023-05-26T09:09:39.762Z,18.80
2023-05-26T09:12:10.334Z,18.83
2023-05-26T09:14:37.113Z,19.17
2023-05-26T09:17:03.788Z,19.24
2023-05-26T09:19:30.316Z,19.44
2023-05-26T09:21:56.841Z,19.10
2023-05-26T09:24:24.477Z,19.18
2023-05-26T09:26:51.686Z,19.27
2023-05-26T09:29:18.310Z,19.35
2023-05-26T09:31:51.146Z,19.56
2023-05-26T09:34:22.124Z,19.65
2023-05-26T09:36:49.368Z,19.51
2023-05-26T09:39:16.816Z,19.51
2023-05-26T09:41:45.151Z,19.70
2023-05-26T09:44:16.063Z,19.74
2023-05-26T09:46:43.879Z,19.84
2023-05-26T09:49:18.000Z,19.89
2023-05-26T09:51:48.767Z,20.33
2023-05-26T09:54:22.862Z,19.91
2023-05-26T09:57:02.471Z,19.73
2023-05-26T09:59:33.008Z,20.09
2023-05-26T10:02:00.247Z,20.08
2023-05-26T10:04:26.891Z,20.29
2023-05-26T10:06:53.861Z,20.16
2023-05-26T10:09:22.600Z,20.48
2023-05-26T10:14:16.674Z,20.61
2023-05-26T10:16:43.335Z,20.87
2023-05-26T10:19:09.942Z,20.78
2023-05-26T10:21:41.351Z,20.71
2023-05-26T10:24:11.788Z,20.37
2023-05-26T10:26:41.346Z,20.77
2023-05-26T10:29:09.004Z,20.74
2023-05-26T10:31:36.052Z,20.31
2023-05-26T10:34:15.545Z,20.29
2023-05-26T10:36:42.631Z,20.54
2023-05-26T10:39:12.494Z,20.83
2023-05-26T10:41:40.269Z,20.81
2023-05-26T10:44:06.970Z,21.32
2023-05-26T10:46:40.778Z,21.72
2023-05-26T10:49:20.293Z,21.87
2023-05-26T10:51:53.894Z,21.51
2023-05-26T10:54:22.375Z,20.95
2023-05-26T10:56:51.138Z,21.44
2023-05-26T10:59:31.344Z,21.48
2023-05-26T11:01:58.681Z,21.47
2023-05-26T11:04:25.866Z,21.29
2023-05-26T11:06:58.047Z,21.43
2023-05-26T11:09:25.437Z,21.34
2023-05-26T11:11:55.817Z,21.33
2023-05-26T11:14:23.862Z,21.00
2023-05-26T11:16:51.241Z,21.37
2023-05-26T11:19:27.526Z,21.50
2023-05-26T11:21:54.019Z,21.88
2023-05-26T11:24:20.903Z,22.24
2023-05-26T11:26:47.472Z,22.31
2023-05-26T11:29:13.981Z,22.12
2023-05-26T11:31:40.538Z,22.64
2023-05-26T11:34:07.217Z,23.15
2023-05-26T11:36:33.781Z,23.61
2023-05-26T11:39:01.506Z,23.50
2023-05-26T11:41:28.138Z,23.22
2023-05-26T11:43:54.888Z,23.48
2023-05-26T11:46:21.696Z,23.31
2023-05-26T11:48:48.319Z,22.75
2023-05-26T11:51:15.956Z,22.89
2023-05-26T11:53:43.424Z,24.23
2023-05-26T11:56:11.307Z,24.05
2023-05-26T11:58:42.358Z,24.06
2023-05-26T12:01:09.338Z,23.86
2023-05-26T12:03:41.963Z,23.69
2023-05-26T12:06:18.402Z,24.23
2023-05-26T12:08:47.717Z,22.80
2023-05-26T12:11:35.238Z,23.26
2023-05-26T12:14:03.601Z,23.66
2023-05-26T12:16:34.480Z,23.34
2023-05-26T12:19:04.001Z,23.17
2023-05-26T12:21:31.313Z,24.25
2023-05-26T12:23:58.396Z,24.73
2023-05-26T12:26:29.158Z,24.31
2023-05-26T12:29:05.247Z,23.71
2023-05-26T12:31:45.037Z,23.71
2023-05-26T12:34:13.884Z,23.79
2023-05-26T12:36:42.213Z,24.01
2023-05-26T12:39:09.846Z,24.70
2023-05-26T12:41:37.144Z,23.66
2023-05-26T12:44:03.837Z,23.31
2023-05-26T12:46:30.559Z,25.26
2023-05-26T12:48:58.427Z,25.24
2023-05-26T12:51:28.330Z,26.10
2023-05-26T12:53:55.126Z,24.63
2023-05-26T12:56:21.688Z,24.82
2023-05-26T12:58:49.027Z,25.94
2023-05-26T13:01:15.748Z,26.24
2023-05-26T13:03:42.923Z,26.71
2023-05-26T13:06:09.829Z,24.08
2023-05-26T13:08:36.618Z,24.75
2023-05-26T13:11:03.553Z,25.25
2023-05-26T13:13:30.602Z,25.87
2023-05-26T13:15:57.425Z,26.73
2023-05-26T13:18:24.063Z,27.02
2023-05-26T13:20:50.752Z,27.29
2023-05-26T13:23:17.491Z,25.91
2023-05-26T13:25:44.017Z,26.46
2023-05-26T13:28:10.554Z,24.70
2023-05-26T13:30:37.386Z,24.73
2023-05-26T13:33:05.384Z,25.70
2023-05-26T13:35:32.167Z,25.84
2023-05-26T13:37:58.821Z,26.02
2023-05-26T13:40:25.413Z,26.16
2023-05-26T13:42:52.166Z,25.17
2023-05-26T13:45:18.813Z,26.46
2023-05-26T13:47:45.374Z,27.74
2023-05-26T13:50:20.485Z,27.14
2023-05-26T13:52:47.758Z,25.87
2023-05-26T13:55:14.277Z,25.14
2023-05-26T13:57:40.836Z,26.32
2023-05-26T14:00:08.392Z,25.81
2023-05-26T14:02:35.198Z,25.64
2023-05-26T14:05:02.427Z,25.91
2023-05-26T14:07:29.019Z,28.03
2023-05-26T14:09:55.537Z,28.94
2023-05-26T14:12:22.096Z,28.08
2023-05-26T14:14:48.657Z,27.75
2023-05-26T14:17:15.317Z,28.03
2023-05-26T14:19:42.024Z,27.23
2023-05-26T14:22:16.555Z,25.44
2023-05-26T14:24:47.553Z,27.28
2023-05-26T14:27:14.236Z,27.06
2023-05-26T14:29:41.089Z,28.36
2023-05-26T14:32:07.729Z,27.42
2023-05-26T14:34:34.377Z,28.20
2023-05-26T14:37:01.212Z,27.50
2023-05-26T14:39:29.391Z,26.65
2023-05-26T14:41:56.127Z,26.12
2023-05-26T14:44:22.689Z,26.19
2023-05-26T14:46:49.274Z,27.70
2023-05-26T14:49:16.051Z,26.30
2023-05-26T14:51:42.685Z,28.42
2023-05-26T14:54:09.367Z,28.79
2023-05-26T14:56:36.174Z,28.19
2023-05-26T14:59:03.335Z,27.59
2023-05-26T15:01:29.979Z,25.22
2023-05-26T15:04:13.479Z,26.43
2023-05-26T15:06:41.440Z,27.45
2023-05-26T15:09:08.441Z,27.93
2023-05-26T15:11:35.382Z,28.89
2023-05-26T15:14:02.184Z,28.57
2023-05-26T15:16:28.852Z,28.82
2023-05-26T15:18:58.950Z,29.56
2023-05-26T15:21:29.743Z,27.76
2023-05-26T15:24:05.467Z,27.92
2023-05-26T15:26:33.736Z,27.31
2023-05-26T15:29:00.350Z,27.38
2023-05-26T15:31:26.914Z,26.67
2023-05-26T15:33:53.486Z,27.08
2023-05-26T15:36:23.735Z,27.43
2023-05-26T15:38:50.338Z,28.08
2023-05-26T15:41:17.311Z,28.18
2023-05-26T15:43:43.886Z,27.12
2023-05-26T15:46:10.522Z,27.68
2023-05-26T15:48:37.796Z,26.64
2023-05-26T15:51:04.656Z,26.42
2023-05-26T15:53:31.462Z,25.80
2023-05-26T15:56:00.703Z,26.48
2023-05-26T15:58:27.604Z,26.90
2023-05-26T16:00:54.285Z,27.10
2023-05-26T16:03:21.831Z,26.62
2023-05-26T16:05:48.421Z,26.58
2023-05-26T16:08:15.357Z,27.46
2023-05-26T16:10:41.962Z,27.86
2023-05-26T16:13:08.760Z,26.95
2023-05-26T16:15:35.347Z,27.38
2023-05-26T16:18:01.992Z,27.22
2023-05-26T16:20:28.598Z,26.44
2023-05-26T16:22:55.203Z,26.36
2023-05-26T16:25:21.763Z,26.03
2023-05-26T16:27:48.530Z,26.13
2023-05-26T16:30:15.140Z,25.98
2023-05-26T16:32:42.695Z,25.43
2023-05-26T16:35:10.169Z,25.86
2023-05-26T16:37:36.969Z,25.41
2023-05-26T16:40:07.106Z,25.78
2023-05-26T16:42:33.700Z,25.73
2023-05-26T16:45:00.251Z,25.91
2023-05-26T16:47:27.073Z,25.94
2023-05-26T16:49:53.727Z,25.15
2023-05-26T16:52:20.291Z,24.93
2023-05-26T16:54:46.797Z,24.80
2023-05-26T16:57:13.298Z,25.20
2023-05-26T16:59:39.872Z,25.04
2023-05-26T17:02:06.421Z,24.76
2023-05-26T17:04:32.984Z,24.41
2023-05-26T17:06:59.544Z,24.85
2023-05-26T17:09:26.084Z,23.72
2023-05-26T17:11:52.605Z,24.19
2023-05-26T17:14:19.162Z,23.62
2023-05-26T17:16:45.669Z,23.32
2023-05-26T17:19:12.245Z,23.33
2023-05-26T17:21:38.794Z,22.81
2023-05-26T17:24:05.452Z,22.86
2023-05-26T17:26:33.327Z,22.89
2023-05-26T17:28:59.933Z,22.80
2023-05-26T17:31:26.464Z,22.55
2023-05-26T17:33:53.015Z,22.30
2023-05-26T17:36:19.652Z,22.38
2023-05-26T17:38:46.426Z,22.32
2023-05-26T17:41:12.976Z,22.25
2023-05-26T17:43:39.797Z,22.07
2023-05-26T17:46:06.952Z,22.08
2023-05-26T17:48:33.542Z,21.55
2023-05-26T17:51:00.445Z,21.61
2023-05-26T17:53:27.482Z,21.37
2023-05-26T17:55:54.063Z,21.29
2023-05-26T17:58:20.715Z,21.25
2023-05-26T18:00:47.219Z,21.00
2023-05-26T18:03:14.111Z,20.87
2023-05-26T18:05:41.024Z,20.77
2023-05-26T18:08:07.668Z,20.69
2023-05-26T18:10:34.223Z,20.55
2023-05-26T18:13:01.184Z,20.52
2023-05-26T18:15:27.729Z,20.52
2023-05-26T18:17:54.412Z,20.28
2023-05-26T18:20:21.873Z,20.16
2023-05-26T18:22:50.859Z,19.99
2023-05-26T18:25:17.437Z,20.08
2023-05-26T18:27:44.069Z,19.98
2023-05-26T18:30:12.603Z,19.92
2023-05-26T18:32:39.155Z,19.81
2023-05-26T18:35:07.502Z,19.76
2023-05-26T18:37:34.017Z,19.78
2023-05-26T18:40:04.499Z,19.65
2023-05-26T18:42:31.725Z,19.51
2023-05-26T18:44:58.222Z,19.41
2023-05-26T18:47:25.224Z,19.36
2023-05-26T18:49:52.422Z,19.35
2023-05-26T18:52:18.979Z,19.24
2023-05-26T18:54:47.367Z,19.11
2023-05-26T18:57:14.032Z,19.07
2023-05-26T18:59:41.050Z,19.00
2023-05-26T19:02:08.027Z,18.80
2023-05-26T19:04:34.605Z,18.69
2023-05-26T19:07:01.112Z,18.67
2023-05-26T19:09:27.857Z,18.55
2023-05-26T19:11:54.597Z,18.45
2023-05-26T19:14:21.354Z,18.21
2023-05-26T19:16:48.151Z,17.94
2023-05-26T19:19:14.749Z,17.72
2023-05-26T19:21:41.310Z,17.47
2023-05-26T19:24:09.451Z,17.09
2023-05-26T19:26:36.158Z,16.98
2023-05-26T19:29:04.510Z,17.14
2023-05-26T19:31:32.007Z,17.13
2023-05-26T19:33:58.717Z,17.22
2023-05-26T19:36:28.889Z,17.24
2023-05-26T19:38:55.604Z,16.79
2023-05-26T19:41:22.691Z,16.71
2023-05-26T19:43:49.391Z,16.65
2023-05-26T19:46:15.897Z,16.43
2023-05-26T19:48:42.501Z,16.71
2023-05-26T19:51:11.210Z,17.18
2023-05-26T19:53:37.924Z,17.17
2023-05-26T19:56:04.623Z,17.16
2023-05-26T19:58:31.398Z,17.10
2023-05-26T20:00:57.989Z,17.08
2023-05-26T20:03:24.918Z,17.04
2023-05-26T20:05:51.486Z,17.00
2023-05-26T20:08:18.260Z,16.97
2023-05-26T20:10:44.917Z,16.93
2023-05-26T20:13:11.488Z,16.92
2023-05-26T20:15:38.064Z,16.84
2023-05-26T20:18:08.171Z,16.82
2023-05-26T20:20:35.216Z,16.69
2023-05-26T20:23:02.235Z,16.63
2023-05-26T20:25:28.860Z,16.64
2023-05-26T20:27:55.426Z,16.48
2023-05-26T20:30:22.404Z,16.55
2023-05-26T20:32:49.083Z,16.53
2023-05-26T20:35:15.667Z,16.41
2023-05-26T20:37:42.185Z,16.16
2023-05-26T20:40:15.442Z,16.03
2023-05-26T20:42:42.331Z,15.76
2023-05-26T20:45:09.133Z,15.71
2023-05-26T20:47:36.018Z,15.79
2023-05-26T20:50:03.085Z,15.75
2023-05-26T20:52:29.640Z,15.66
2023-05-26T20:54:56.202Z,15.59
2023-05-26T20:57:22.940Z,15.29
2023-05-26T20:59:49.480Z,15.04
2023-05-26T21:02:16.308Z,14.79
2023-05-26T21:04:42.929Z,14.79
2023-05-26T21:07:09.503Z,14.56
2023-05-26T21:09:36.101Z,14.76
2023-05-26T21:12:02.877Z,14.22
2023-05-26T21:14:30.087Z,14.11
2023-05-26T21:16:56.723Z,14.27
2023-05-26T21:19:23.246Z,14.51
2023-05-26T21:21:51.152Z,13.92
2023-05-26T21:24:17.849Z,13.94
2023-05-26T21:26:44.456Z,14.38
2023-05-26T21:29:11.196Z,14.15
2023-05-26T21:31:37.791Z,14.18
2023-05-26T21:34:04.498Z,13.78
2023-05-26T21:36:31.048Z,14.20
2023-05-26T21:38:57.657Z,14.04
2023-05-26T21:41:27.639Z,13.64
2023-05-26T21:43:54.165Z,13.89
2023-05-26T21:46:20.860Z,13.92
2023-05-26T21:48:47.423Z,13.77
2023-05-26T21:51:13.953Z,13.80
2023-05-26T21:53:40.574Z,13.91
2023-05-26T21:56:07.102Z,13.87
2023-05-26T21:58:33.757Z,13.30
2023-05-26T22:01:00.586Z,13.46
2023-05-26T22:03:27.922Z,13.64
2023-05-26T22:05:54.741Z,12.96
2023-05-26T22:08:21.573Z,13.10
2023-05-26T22:10:48.114Z,12.77
2023-05-26T22:13:14.634Z,12.60
2023-05-26T22:15:41.224Z,12.44
2023-05-26T22:18:07.816Z,12.50
2023-05-26T22:20:34.456Z,12.94
2023-05-26T22:23:01.091Z,12.51
2023-05-26T22:25:27.622Z,12.45
2023-05-26T22:27:54.234Z,12.83
2023-05-26T22:30:24.529Z,12.96
2023-05-26T22:32:51.614Z,12.49
2023-05-26T22:35:18.162Z,12.00
2023-05-26T22:37:44.690Z,11.69
2023-05-26T22:40:12.071Z,11.70
2023-05-26T22:42:38.602Z,11.74
2023-05-26T22:45:05.719Z,11.41
2023-05-26T22:47:32.318Z,11.42
2023-05-26T22:49:58.897Z,11.73
2023-05-26T22:52:27.121Z,12.20
2023-05-26T22:54:53.635Z,12.16
2023-05-26T22:57:20.332Z,12.31
2023-05-26T22:59:46.868Z,12.45
2023-05-26T23:02:13.572Z,12.18
2023-05-26T23:04:40.099Z,11.97
2023-05-26T23:07:06.729Z,11.93
2023-05-26T23:09:33.542Z,12.08
2023-05-26T23:12:00.120Z,12.01
2023-05-26T23:14:26.698Z,11.33
2023-05-26T23:16:53.226Z,11.20
2023-05-26T23:19:19.780Z,11.41
2023-05-26T23:21:46.380Z,11.47
2023-05-26T23:24:12.936Z,11.47
2023-05-26T23:26:39.425Z,11.58
2023-05-26T23:29:06.346Z,11.82
2023-05-26T23:31:32.900Z,11.88
2023-05-26T23:33:59.455Z,11.64
2023-05-26T23:36:26.285Z,11.22
2023-05-26T23:38:52.798Z,10.61
2023-05-26T23:41:19.326Z,10.91
2023-05-26T23:43:46.159Z,11.34
2023-05-26T23:46:12.733Z,11.03
2023-05-26T23:48:39.318Z,10.65
2023-05-26T23:51:06.167Z,10.59
2023-05-26T23:53:32.749Z,11.18
2023-05-26T23:55:59.354Z,11.58
2023-05-26T23:58:25.961Z,11.25
